Time;durP1;ratioP1;P1;durP2;ratioP2;P2;SDS_P1;SDS_P2;PMS_P1;PMS_P2;Temp;Humidity;BMP_temperature;BMP_pressure;BME280_temperature;BME280_humidity;BME280_pressure;Samples;Min_cycle;Max_cycle;Signal;HPM_P1;HPM_P2
2023/04/19 00:01:28;;;;;;;11.00;8.00;;;8.10;99.90;;;;;;5048699;28;20084;-70
2023/04/19 00:03:55;;;;;;;12.52;8.15;;;;;;;;;;5048387;28;20133;-71
2023/04/19 00:06:22;;;;;;;13.32;7.85;;;;;;;;;;5048564;28;20048;-70
2023/04/19 00:08:47;;;;;;;11.30;8.05;;;7.90;99.90;;;;;;5048501;28;20080;-70
2023/04/19 00:11:13;;;;;;;12.23;8.02;;;8.00;99.90;;;;;;5048653;28;20131;-70
2023/04/19 00:13:39;;;;;;;13.85;7.90;;;;;;;;;;5048720;28;20490;-70
2023/04/19 00:16:05;;;;;;;12.45;9.05;;;;;;;;;;5066748;28;20098;-70
2023/04/19 00:18:31;;;;;;;12.57;7.97;;;;;;;;;;5066137;28;20417;-70
2023/04/19 00:20:57;;;;;;;10.93;7.80;;;;;;;;;;5048076;28;20041;-70
2023/04/19 00:23:24;;;;;;;13.93;8.02;;;;;;;;;;5048411;28;20414;-70
2023/04/19 00:25:50;;;;;;;13.68;7.90;;;;;;;;;;5047995;28;20044;-70
2023/04/19 00:28:16;;;;;;;11.13;8.00;;;;;;;;;;5048423;28;20051;-70
2023/04/19 00:30:42;;;;;;;10.38;7.47;;;;;;;;;;5046716;28;20044;-70
2023/04/19 00:33:11;;;;;;;9.75;7.05;;;;;;;;;;5048190;28;20397;-70
2023/04/19 00:35:41;;;;;;;12.55;7.78;;;;;;;;;;5048226;28;20498;-71
2023/04/19 00:38:07;;;;;;;11.43;7.25;;;;;;;;;;5047594;28;20055;-70
2023/04/19 00:40:33;;;;;;;12.25;7.00;;;;;;;;;;5047939;28;20049;-70
2023/04/19 00:42:59;;;;;;;14.00;7.88;;;7.60;99.90;;;;;;5048003;28;20068;-70
2023/04/19 00:45:25;;;;;;;10.13;6.78;;;;;;;;;;5066087;28;20087;-70
2023/04/19 00:47:51;;;;;;;11.85;7.72;;;7.70;99.90;;;;;;5047756;28;20063;-70
2023/04/19 00:50:18;;;;;;;10.43;6.75;;;;;;;;;;5065518;28;21283;-70
2023/04/19 00:52:45;;;;;;;13.30;7.78;;;7.80;99.90;;;;;;5047654;28;20501;-70
2023/04/19 00:55:11;;;;;;;13.00;7.55;;;;;;;;;;5047918;28;20040;-70
2023/04/19 00:57:37;;;;;;;9.13;7.00;;;;;;;;;;5048095;28;20090;-70
2023/04/19 01:00:08;;;;;;;12.02;7.70;;;;;;;;;;5047173;28;20054;-70
2023/04/19 01:02:35;;;;;;;9.35;6.85;;;;;;;;;;5047744;28;20508;-70
2023/04/19 01:05:02;;;;;;;9.90;7.28;;;;;;;;;;5047620;28;20049;-70
2023/04/19 01:07:28;;;;;;;10.82;7.53;;;;;;;;;;5047264;28;20055;-70
2023/04/19 01:09:54;;;;;;;11.50;7.55;;;;;;;;;;5047383;28;20044;-70
2023/04/19 01:12:20;;;;;;;9.48;6.95;;;;;;;;;;5065583;28;20045;-70
2023/04/19 01:14:46;;;;;;;11.75;7.07;;;;;;;;;;5066034;28;20049;-70
2023/04/19 01:17:12;;;;;;;9.82;7.13;;;;;;;;;;5066265;28;20036;-70
2023/04/19 01:19:38;;;;;;;12.43;7.82;;;;;;;;;;5047531;28;20044;-70
2023/04/19 01:22:05;;;;;;;9.90;7.55;;;7.40;99.90;;;;;;5047570;28;20047;-70
2023/04/19 01:24:31;;;;;;;10.80;8.07;;;;;;;;;;5047514;28;20084;-70
2023/04/19 01:26:56;;;;;;;11.80;8.05;;;7.40;99.90;;;;;;5047769;28;20083;-70
2023/04/19 01:29:22;;;;;;;12.00;7.32;;;7.20;99.90;;;;;;5047314;28;20617;-70
2023/04/19 01:31:52;;;;;;;12.35;8.20;;;;;;;;;;5050942;28;20071;-70
2023/04/19 01:34:18;;;;;;;10.75;6.60;;;;;;;;;;5069533;28;20712;-71
2023/04/19 01:36:44;;;;;;;10.40;7.03;;;;;;;;;;5051559;28;20044;-70
2023/04/19 01:39:10;;;;;;;10.45;7.00;;;;;;;;;;5069422;28;20047;-70
2023/04/19 01:41:36;;;;;;;12.85;7.88;;;;;;;;;;5050912;28;20059;-70
2023/04/19 01:44:02;;;;;;;9.30;6.88;;;7.40;99.90;;;;;;5069510;28;20041;-70
2023/04/19 01:46:28;;;;;;;10.25;6.30;;;;;;;;;;5050824;28;20071;-70
2023/04/19 01:48:54;;;;;;;9.52;6.90;;;;;;;;;;5047147;28;20106;-70
2023/04/19 01:51:23;;;;;;;10.38;7.20;;;;;;;;;;5047756;28;20099;-71
2023/04/19 01:53:52;;;;;;;11.23;6.88;;;;;;;;;;5048896;28;20506;-70
2023/04/19 01:56:18;;;;;;;11.32;7.32;;;;;;;;;;5048931;28;20391;-70
2023/04/19 01:58:44;;;;;;;11.60;7.18;;;;;;;;;;5047332;28;20060;-70
2023/04/19 02:01:11;;;;;;;10.07;7.07;;;7.40;99.90;;;;;;5047522;28;20095;-70
2023/04/19 02:03:37;;;;;;;12.68;7.57;;;;;;;;;;5047711;28;20140;-70
2023/04/19 02:06:03;;;;;;;12.05;7.60;;;;;;;;;;5043932;28;20040;-70
2023/04/19 02:08:29;;;;;;;12.73;6.93;;;;;;;;;;5047260;28;20051;-70
2023/04/19 02:10:55;;;;;;;13.82;8.80;;;7.40;99.90;;;;;;5048956;28;20457;-70
2023/04/19 02:13:21;;;;;;;13.13;8.15;;;;;;;;;;5047841;28;20041;-71
2023/04/19 02:15:47;;;;;;;12.10;7.60;;;;;;;;;;5047434;28;20040;-70
2023/04/19 02:18:13;;;;;;;10.95;8.60;;;7.30;99.90;;;;;;5047410;28;20044;-70
2023/04/19 02:20:39;;;;;;;12.55;8.38;;;;;;;;;;5048452;28;20033;-69
2023/04/19 02:23:05;;;;;;;11.63;7.85;;;;;;;;;;5047090;28;20069;-70
2023/04/19 02:25:31;;;;;;;12.23;8.32;;;;;;;;;;5047106;28;20122;-70
2023/04/19 02:27:57;;;;;;;11.95;8.80;;;;;;;;;;5048286;28;20041;-70
2023/04/19 02:30:23;;;;;;;14.10;8.90;;;;;;;;;;5047137;28;20048;-70
2023/04/19 02:32:48;;;;;;;14.88;8.45;;;7.30;99.90;;;;;;5046885;28;20379;-70
2023/04/19 02:35:15;;;;;;;15.50;9.30;;;;;;;;;;5048525;28;20047;-70
2023/04/19 02:37:41;;;;;;;13.50;9.38;;;;;;;;;;5030452;28;20039;-70
2023/04/19 02:40:08;;;;;;;15.57;9.65;;;;;;;;;;5048161;28;20041;-70
2023/04/19 02:42:33;;;;;;;15.18;8.73;;;7.10;99.90;;;;;;5047704;28;20064;-70
2023/04/19 02:44:59;;;;;;;15.07;8.65;;;;;;;;;;5046592;28;20498;-70
2023/04/19 02:47:25;;;;;;;13.15;8.25;;;;;;;;;;5048296;28;20411;-70
2023/04/19 02:49:51;;;;;;;13.57;9.52;;;;;;;;;;5067716;28;20052;-70
2023/04/19 02:52:17;;;;;;;15.65;9.85;;;;;;;;;;5049578;28;20040;-70
2023/04/19 02:54:43;;;;;;;16.42;9.48;;;;;;;;;;5049846;28;20206;-70
2023/04/19 02:57:09;;;;;;;13.00;8.77;;;7.00;99.90;;;;;;5049464;28;20127;-70
2023/04/19 02:59:35;;;;;;;15.43;9.50;;;;;;;;;;5049960;28;20064;-70
2023/04/19 03:02:00;;;;;;;13.70;8.48;;;;;;;;;;5049982;28;20059;-70
2023/04/19 03:04:27;;;;;;;14.20;9.55;;;;;;;;;;5060719;28;20066;-70
2023/04/19 03:06:53;;;;;;;12.57;9.05;;;;;;;;;;5067439;28;20591;-70
2023/04/19 03:09:19;;;;;;;16.10;9.18;;;7.00;99.90;;;;;;5048985;28;20079;-71
2023/04/19 03:11:45;;;;;;;17.17;9.68;;;;;;;;;;5067272;28;20068;-70
2023/04/19 03:14:11;;;;;;;15.23;9.10;;;;;;;;;;5049358;28;20052;-70
2023/04/19 03:16:37;;;;;;;14.20;8.93;;;;;;;;;;5067208;28;20773;-70
2023/04/19 03:19:03;;;;;;;13.75;8.93;;;;;;;;;;5049005;28;20045;-70
2023/04/19 03:21:29;;;;;;;14.75;9.02;;;;;;;;;;5048936;28;20460;-70
2023/04/19 03:23:55;;;;;;;15.45;9.38;;;;;;;;;;5049271;28;20048;-70
2023/04/19 03:26:21;;;;;;;11.82;8.63;;;;;;;;;;5066800;28;20152;-70
2023/04/19 03:28:47;;;;;;;12.50;8.38;;;;;;;;;;5049276;28;20048;-70
2023/04/19 03:31:13;;;;;;;13.57;8.77;;;;;;;;;;5048980;28;20051;-70
2023/04/19 03:33:39;;;;;;;16.73;9.20;;;6.70;99.90;;;;;;5049405;28;20047;-70
2023/04/19 03:36:05;;;;;;;13.82;9.27;;;;;;;;;;5049415;28;20044;-70
2023/04/19 03:38:32;;;;;;;16.15;9.13;;;;;;;;;;5032288;28;20055;-70
2023/04/19 03:40:58;;;;;;;12.90;9.65;;;;;;;;;;5049745;28;20052;-70
2023/04/19 03:43:24;;;;;;;14.68;8.90;;;;;;;;;;5048732;28;20069;-70
2023/04/19 03:45:50;;;;;;;16.20;8.52;;;;;;;;;;5049258;28;20052;-70
2023/04/19 03:48:16;;;;;;;14.07;8.27;;;;;;;;;;5048260;28;20056;-70
2023/04/19 03:50:42;;;;;;;16.02;8.55;;;;;;;;;;5032654;28;20468;-70
2023/04/19 03:53:08;;;;;;;14.40;8.32;;;;;;;;;;5048469;28;20044;-70
2023/04/19 03:55:34;;;;;;;14.30;8.10;;;;;;;;;;5049079;28;20045;-70
2023/04/19 03:57:59;;;;;;;14.48;9.18;;;6.40;99.90;;;;;;5048453;28;20097;-70
2023/04/19 04:00:26;;;;;;;12.27;7.95;;;;;;;;;;5048313;28;20045;-70
2023/04/19 04:02:52;;;;;;;11.80;7.75;;;;;;;;;;5048167;28;20040;-70
2023/04/19 04:05:18;;;;;;;12.95;7.38;;;;;;;;;;5048691;28;20052;-70
2023/04/19 04:07:44;;;;;;;10.95;7.32;;;;;;;;;;5048227;28;20068;-70
2023/04/19 04:10:10;;;;;;;15.18;8.05;;;;;;;;;;5048101;28;20047;-70
2023/04/19 04:12:36;;;;;;;9.93;7.60;;;;;;;;;;5048295;28;20037;-70
2023/04/19 04:15:02;;;;;;;15.68;8.27;;;;;;;;;;5048461;28;20498;-70
2023/04/19 04:17:28;;;;;;;14.25;7.78;;;;;;;;;;5047061;28;20430;-70
2023/04/19 04:19:54;;;;;;;11.07;7.00;;;;;;;;;;5045566;28;20049;-70
2023/04/19 04:22:20;;;;;;;12.93;7.75;;;6.20;99.90;;;;;;5066148;28;20040;-70
2023/04/19 04:24:46;;;;;;;11.13;7.82;;;6.20;99.90;;;;;;5066190;28;20039;-70
2023/04/19 04:27:12;;;;;;;13.10;7.68;;;;;;;;;;5048063;28;20062;-70
2023/04/19 04:29:40;;;;;;;14.27;7.40;;;;;;;;;;5065764;28;20058;-70
2023/04/19 04:32:09;;;;;;;11.00;7.78;;;;;;;;;;5066201;28;20048;-70
2023/04/19 04:34:36;;;;;;;12.98;6.80;;;;;;;;;;5066108;28;20059;-70
2023/04/19 04:37:02;;;;;;;11.48;7.53;;;;;;;;;;5047955;28;20054;-70
2023/04/19 04:39:29;;;;;;;12.93;7.55;;;;;;;;;;5047919;28;20462;-70
2023/04/19 04:41:56;;;;;;;11.32;6.60;;;;;;;;;;5048271;28;20075;-70
2023/04/19 04:44:22;;;;;;;11.18;7.47;;;;;;;;;;5047579;28;20417;-70
2023/04/19 04:46:48;;;;;;;11.35;6.68;;;;;;;;;;5065876;28;20043;-70
2023/04/19 04:49:14;;;;;;;15.88;7.30;;;;;;;;;;5065434;28;20049;-70
2023/04/19 04:51:40;;;;;;;10.77;6.97;;;;;;;;;;5047796;28;20437;-70
2023/04/19 04:54:06;;;;;;;12.20;6.85;;;6.00;99.90;;;;;;5048222;28;20033;-70
2023/04/19 04:56:32;;;;;;;11.20;6.80;;;;;;;;;;5065882;28;20108;-70
2023/04/19 04:58:58;;;;;;;14.55;6.53;;;;;;;;;;5064745;28;20044;-70
2023/04/19 05:01:24;;;;;;;9.95;6.70;;;;;;;;;;5048180;28;20045;-70
2023/04/19 05:03:51;;;;;;;10.90;6.45;;;;;;;;;;5047702;28;20055;-70
2023/04/19 05:06:16;;;;;;;9.40;5.97;;;6.20;99.90;;;;;;5051768;28;20048;-70
2023/04/19 05:08:42;;;;;;;9.93;6.25;;;;;;;;;;5069464;28;20070;-70
2023/04/19 05:11:08;;;;;;;9.02;6.65;;;;;;;;;;5051588;28;20072;-70
2023/04/19 05:13:34;;;;;;;10.05;5.82;;;;;;;;;;5052055;28;20131;-70
2023/04/19 05:16:00;;;;;;;12.82;6.15;;;;;;;;;;5051728;28;20116;-70
2023/04/19 05:18:26;;;;;;;9.48;5.97;;;;;;;;;;5069730;28;20549;-70
2023/04/19 05:20:52;;;;;;;12.40;6.47;;;;;;;;;;5069672;28;20105;-70
2023/04/19 05:23:18;;;;;;;13.93;6.32;;;;;;;;;;5051625;28;20059;-70
2023/04/19 05:25:43;;;;;;;9.80;5.38;;;6.30;99.90;;;;;;5051463;28;20059;-70
2023/04/19 05:28:09;;;;;;;10.35;5.93;;;;;;;;;;5051859;28;20123;-70
2023/04/19 05:30:35;;;;;;;8.32;5.95;;;;;;;;;;5051264;28;20048;-70
2023/04/19 05:33:01;;;;;;;9.82;6.15;;;;;;;;;;5051738;28;20041;-70
2023/04/19 05:35:27;;;;;;;7.88;5.10;;;;;;;;;;5051445;28;20076;-70
2023/04/19 05:40:39;;;;;;;8.38;5.38;;;;;;;;;;5308330;22;20057;-70
2023/04/19 05:43:05;;;;;;;10.15;5.43;;;;;;;;;;5031371;28;20064;-70
2023/04/19 05:45:31;;;;;;;10.00;5.70;;;;;;;;;;5031127;28;20056;-70
2023/04/19 05:47:57;;;;;;;8.75;5.00;;;6.80;99.90;;;;;;5048814;28;20036;-70
2023/04/19 05:50:23;;;;;;;10.23;5.60;;;;;;;;;;5067512;28;20036;-70
2023/04/19 05:52:49;;;;;;;7.13;5.10;;;;;;;;;;5050729;28;20500;-70
2023/04/19 05:55:15;;;;;;;10.32;5.10;;;;;;;;;;5069062;28;20095;-70
2023/04/19 05:57:41;;;;;;;7.70;5.10;;;;;;;;;;5050480;28;20079;-70
2023/04/19 06:00:08;;;;;;;11.63;6.10;;;;;;;;;;5050692;28;20510;-70
2023/04/19 06:02:34;;;;;;;7.35;4.80;;;;;;;;;;5051309;28;20048;-70
2023/04/19 06:05:03;;;;;;;6.53;5.22;;;;;;;;;;5053726;28;20055;-70
2023/04/19 06:07:29;;;;;;;7.07;5.20;;;;;;;;;;5071511;28;20048;-70
2023/04/19 06:09:55;;;;;;;5.63;4.45;;;;;;;;;;5052871;28;20452;-70
2023/04/19 06:12:21;;;;;;;7.18;4.75;;;;;;;;;;5070117;28;20118;-70
2023/04/19 06:14:47;;;;;;;5.38;4.63;;;;;;;;;;5055255;28;20076;-70
2023/04/19 06:17:15;;;;;;;7.07;4.65;;;11.10;99.90;;;;;;5056148;28;20131;-70
2023/04/19 06:19:41;;;;;;;12.20;4.20;;;11.40;99.90;;;;;;5050495;28;20515;-72
2023/04/19 06:22:07;;;;;;;5.13;3.90;;;;;;;;;;5032769;28;20040;-71
2023/04/19 06:24:33;;;;;;;7.07;4.00;;;;;;;;;;5050356;28;20049;-71
2023/04/19 06:26:59;;;;;;;5.70;4.03;;;;;;;;;;5068049;28;20041;-71
2023/04/19 06:29:25;;;;;;;6.75;3.72;;;;;;;;;;5048520;28;20051;-71
2023/04/19 06:31:51;;;;;;;7.80;3.90;;;;;;;;;;5050177;28;20041;-71
2023/04/19 06:34:16;;;;;;;4.88;3.33;;;12.90;99.90;;;;;;5068115;28;20036;-71
2023/04/19 06:36:42;;;;;;;4.55;3.38;;;;;;;;;;5050355;28;20036;-71
2023/04/19 06:39:08;;;;;;;6.30;3.75;;;13.60;99.90;;;;;;5050017;28;20461;-71
2023/04/19 06:41:34;;;;;;;5.78;3.35;;;13.70;99.90;;;;;;5049950;28;20040;-71
2023/04/19 06:44:00;;;;;;;7.70;3.75;;;13.90;99.90;;;;;;5050293;28;20044;-72
2023/04/19 06:46:26;;;;;;;4.70;3.22;;;14.00;99.90;;;;;;5049566;28;20059;-71
2023/04/19 06:48:51;;;;;;;4.80;2.85;;;14.00;99.90;;;;;;5031888;28;20076;-72
2023/04/19 06:51:17;;;;;;;4.30;3.35;;;14.80;99.90;;;;;;5049867;28;20127;-71
2023/04/19 06:53:43;;;;;;;3.67;2.78;;;14.50;99.90;;;;;;5050128;28;20062;-72
2023/04/19 06:56:09;;;;;;;5.80;3.28;;;14.50;99.90;;;;;;5049539;28;20061;-71
2023/04/19 06:58:35;;;;;;;4.57;2.88;;;14.30;99.90;;;;;;5062027;28;20044;-72
2023/04/19 07:01:03;;;;;;;5.05;2.97;;;14.50;99.90;;;;;;5049519;28;20154;-72
2023/04/19 07:03:28;;;;;;;3.97;2.80;;;15.10;99.90;;;;;;5049792;28;20048;-72
2023/04/19 07:05:55;;;;;;;5.03;2.70;;;15.10;99.90;;;;;;5046289;28;20044;-71
2023/04/19 07:08:21;;;;;;;9.13;3.33;;;13.40;99.90;;;;;;5062430;28;20063;-72
2023/04/19 07:10:47;;;;;;;4.20;2.47;;;12.30;99.90;;;;;;5047059;28;20194;-72
2023/04/19 07:13:13;;;;;;;6.90;2.90;;;;;;;;;;5048841;28;20040;-73
2023/04/19 07:15:38;;;;;;;5.55;2.60;;;11.40;99.90;;;;;;5063542;28;20033;-73
2023/04/19 07:18:04;;;;;;;4.97;2.58;;;;;;;;;;5049179;28;20044;-73
2023/04/19 07:20:31;;;;;;;6.55;2.50;;;;;;;;;;5048328;28;20040;-70
2023/04/19 07:22:59;;;;;;;5.40;2.45;;;11.30;99.90;;;;;;5043274;28;20047;-71
2023/04/19 07:25:26;;;;;;;4.03;2.20;;;10.70;99.90;;;;;;5044329;28;20048;-72
2023/04/19 07:27:53;;;;;;;7.10;2.80;;;10.80;99.90;;;;;;5065722;28;20040;-72
2023/04/19 07:30:19;;;;;;;6.43;2.55;;;;;;;;;;5063782;28;20048;-72
2023/04/19 07:32:45;;;;;;;2.53;1.88;;;;;;;;;;5047016;28;20071;-71
2023/04/19 07:35:11;;;;;;;4.22;2.50;;;;;;;;;;5064419;28;20041;-72
2023/04/19 07:37:37;;;;;;;4.70;2.75;;;;;;;;;;5048953;28;20116;-70
2023/04/19 07:40:04;;;;;;;3.97;2.42;;;;;;;;;;5047907;28;20109;-71
2023/04/19 07:42:30;;;;;;;4.75;2.60;;;;;;;;;;5066921;28;20048;-70
2023/04/19 07:44:56;;;;;;;4.25;2.53;;;;;;;;;;5045414;28;20154;-70
2023/04/19 07:47:22;;;;;;;2.10;1.50;;;;;;;;;;5066712;28;20064;-70
2023/04/19 07:49:51;;;;;;;4.53;2.25;;;;;;;;;;5046641;28;20045;-70
2023/04/19 07:52:17;;;;;;;2.85;2.17;;;;;;;;;;5047450;28;20053;-70
2023/04/19 07:54:43;;;;;;;6.38;2.47;;;;;;;;;;5048689;28;20280;-70
2023/04/19 07:57:09;;;;;;;5.40;2.53;;;;;;;;;;5066349;28;20032;-71
2023/04/19 07:59:35;;;;;;;4.78;2.22;;;;;;;;;;5064590;28;20131;-71
2023/04/19 08:02:01;;;;;;;4.82;2.40;;;10.90;99.90;;;;;;5048332;28;20051;-72
2023/04/19 08:04:27;;;;;;;3.88;2.15;;;;;;;;;;5065471;28;20048;-71
2023/04/19 08:06:53;;;;;;;2.67;2.03;;;;;;;;;;5064107;28;20048;-71
2023/04/19 08:09:18;;;;;;;2.70;2.50;;;10.90;99.90;;;;;;5045586;28;20063;-71
2023/04/19 08:11:44;;;;;;;6.13;2.53;;;;;;;;;;5047008;28;20040;-71
2023/04/19 08:14:11;;;;;;;5.15;2.47;;;;;;;;;;5048022;28;20032;-71
2023/04/19 08:16:37;;;;;;;5.88;3.03;;;;;;;;;;5045756;28;20056;-71
2023/04/19 08:21:38;;;;;;;4.55;2.95;;;;;;;;;;5615212;23;20062;-71
2023/04/19 08:24:05;;;;;;;5.25;2.45;;;;;;;;;;5006476;28;20613;-70
2023/04/19 08:26:30;;;;;;;3.20;2.30;;;;;;;;;;4988458;28;20548;-72
2023/04/19 08:28:56;;;;;;;6.63;2.80;;;;;;;;;;5000932;28;20039;-71
2023/04/19 08:31:22;;;;;;;4.25;2.83;;;;;;;;;;4989213;28;20518;-72
2023/04/19 08:33:48;;;;;;;4.80;2.78;;;;;;;;;;4967540;28;20042;-71
2023/04/19 08:36:15;;;;;;;5.00;2.75;;;;;;;;;;4986059;28;20088;-71
2023/04/19 08:38:41;;;;;;;5.63;3.42;;;;;;;;;;4990935;28;20049;-71
2023/04/19 08:41:09;;;;;;;5.43;3.17;;;11.40;99.90;;;;;;4970228;28;20057;-71
2023/04/19 08:43:36;;;;;;;4.43;2.88;;;11.40;99.90;;;;;;4985857;28;20500;-72
2023/04/19 08:46:03;;;;;;;7.82;3.10;;;;;;;;;;4968645;28;20042;-72
2023/04/19 08:48:29;;;;;;;4.03;2.63;;;;;;;;;;4983107;28;20489;-72
2023/04/19 08:50:57;;;;;;;5.13;2.92;;;11.60;99.90;;;;;;4990200;28;20072;-72
2023/04/19 08:53:27;;;;;;;4.47;2.53;;;11.50;99.90;;;;;;4971321;28;20054;-71
2023/04/19 08:55:57;;;;;;;4.43;2.60;;;;;;;;;;4970339;28;20052;-72
2023/04/19 08:58:24;;;;;;;4.70;2.63;;;;;;;;;;4962691;28;20073;-71
2023/04/19 09:00:51;;;;;;;3.75;2.30;;;;;;;;;;4985311;28;20046;-71
2023/04/19 09:03:16;;;;;;;3.67;2.60;;;11.80;99.90;;;;;;4979852;28;20049;-71
2023/04/19 09:05:42;;;;;;;9.50;2.47;;;11.70;99.90;;;;;;4977847;28;20742;-72
2023/04/19 09:08:27;;;;;;;5.60;2.20;;;;;;;;;;4982079;28;20042;-72
2023/04/19 09:10:54;;;;;;;4.68;2.40;;;;;;;;;;4965136;28;20046;-73
2023/04/19 09:13:20;;;;;;;3.95;2.60;;;;;;;;;;4964935;28;20515;-72
2023/04/19 09:15:46;;;;;;;7.00;2.22;;;;;;;;;;4961608;28;20042;-73
2023/04/19 09:18:13;;;;;;;3.72;2.22;;;;;;;;;;4965522;28;20089;-73
2023/04/19 09:20:43;;;;;;;3.33;2.30;;;11.90;99.90;;;;;;4985799;28;20128;-72
2023/04/19 09:23:11;;;;;;;2.88;2.08;;;12.10;99.90;;;;;;4962057;28;20121;-72
2023/04/19 09:26:01;;;;;;;3.58;2.05;;;12.20;99.90;;;;;;4984531;28;20074;-72
2023/04/19 09:28:30;;;;;;;5.97;2.38;;;;;;;;;;4955429;28;20588;-72
2023/04/19 09:30:57;;;;;;;2.97;2.10;;;;;;;;;;4964306;28;20093;-72
2023/04/19 09:33:38;;;;;;;4.40;1.90;;;;;;;;;;4964478;28;20140;-72
2023/04/19 09:36:04;;;;;;;2.88;2.10;;;;;;;;;;4958922;28;20082;-72
2023/04/19 09:38:30;;;;;;;3.65;1.88;;;;;;;;;;4960051;28;20548;-70
2023/04/19 09:41:06;;;;;;;3.08;1.73;;;12.80;99.90;;;;;;4962840;28;20052;-71
2023/04/19 09:43:32;;;;;;;2.80;1.73;;;;;;;;;;4961040;28;20094;-70
2023/04/19 09:45:58;;;;;;;6.28;2.10;;;12.90;99.90;;;;;;4961877;28;20141;-71
2023/04/19 09:48:24;;;;;;;3.15;1.60;;;;;;;;;;4979863;28;20050;-71
2023/04/19 09:50:51;;;;;;;2.60;2.00;;;13.00;99.90;;;;;;4965834;28;20513;-71
2023/04/19 09:53:17;;;;;;;6.13;2.25;;;;;;;;;;4972273;28;20072;-71
2023/04/19 09:55:43;;;;;;;3.20;2.08;;;;;;;;;;4954412;28;20050;-71
2023/04/19 09:58:09;;;;;;;3.13;2.40;;;;;;;;;;4970513;28;20827;-71
2023/04/19 10:00:35;;;;;;;2.92;1.42;;;;;;;;;;4965862;28;20056;-70
2023/04/19 10:03:02;;;;;;;2.85;2.08;;;;;;;;;;4971508;28;20479;-70
2023/04/19 10:05:28;;;;;;;4.50;2.42;;;13.10;99.90;;;;;;4963386;28;20125;-70
2023/04/19 10:07:58;;;;;;;3.17;2.13;;;13.40;99.90;;;;;;4985142;28;20411;-72
2023/04/19 10:10:24;;;;;;;2.55;1.70;;;;;;;;;;4964787;28;20124;-72
2023/04/19 10:12:52;;;;;;;3.30;1.60;;;;;;;;;;4967546;28;20125;-73
2023/04/19 10:15:21;;;;;;;3.30;1.80;;;13.30;99.90;;;;;;4958517;28;20050;-72
2023/04/19 10:17:47;;;;;;;2.72;1.35;;;;;;;;;;4980090;28;20538;-73
2023/04/19 10:20:21;;;;;;;5.03;1.52;;;13.50;99.90;;;;;;4966031;28;20057;-73
2023/04/19 10:22:48;;;;;;;3.60;2.20;;;;;;;;;;4959384;28;20058;-72
2023/04/19 10:25:15;;;;;;;2.55;1.55;;;;;;;;;;4982407;28;20038;-73
2023/04/19 10:27:45;;;;;;;3.47;1.65;;;13.60;99.90;;;;;;4965248;28;20042;-72
2023/04/19 10:30:19;;;;;;;3.55;1.70;;;13.70;99.90;;;;;;4971134;28;20112;-72
2023/04/19 10:32:52;;;;;;;2.77;1.67;;;13.80;99.90;;;;;;4968479;28;20050;-73
2023/04/19 10:35:30;;;;;;;2.10;1.50;;;13.90;99.90;;;;;;4965758;28;20093;-72
2023/04/19 10:38:01;;;;;;;3.47;1.58;;;13.80;99.90;;;;;;4983622;28;20622;-72
2023/04/19 10:40:46;;;;;;;3.20;1.35;;;;;;;;;;4980743;28;20061;-72
2023/04/19 10:43:12;;;;;;;6.47;1.40;;;;;;;;;;4983857;28;20053;-73
2023/04/19 10:45:38;;;;;;;3.05;1.50;;;13.90;99.90;;;;;;4952438;28;20061;-71
2023/04/19 10:48:04;;;;;;;2.85;1.60;;;13.90;99.90;;;;;;4964148;28;20038;-73
2023/04/19 10:50:31;;;;;;;4.85;1.65;;;;;;;;;;4987076;28;20042;-72
2023/04/19 10:52:57;;;;;;;3.92;1.30;;;;;;;;;;4969493;28;20047;-72
2023/04/19 10:55:23;;;;;;;4.05;1.60;;;;;;;;;;4966510;28;20050;-72
2023/04/19 10:58:05;;;;;;;4.82;1.60;;;13.90;99.90;;;;;;4965025;28;20129;-72
2023/04/19 11:00:32;;;;;;;2.63;1.02;;;14.00;99.90;;;;;;4986918;28;20076;-72
2023/04/19 11:03:39;;;;;;;2.88;1.50;;;14.10;99.90;;;;;;4983112;28;20061;-72
2023/04/19 11:06:16;;;;;;;1.92;1.50;;;13.90;99.90;;;;;;4973082;28;20068;-72
2023/04/19 11:08:43;;;;;;;1.85;1.30;;;13.90;99.90;;;;;;4970582;28;20061;-72
2023/04/19 11:11:09;;;;;;;6.47;1.55;;;13.90;99.90;;;;;;4967784;28;20042;-72
2023/04/19 11:13:36;;;;;;;5.00;1.48;;;14.00;99.90;;;;;;4968973;28;20691;-72
2023/04/19 11:16:07;;;;;;;1.83;1.50;;;14.10;99.90;;;;;;4967776;28;20046;-72
2023/04/19 11:18:33;;;;;;;2.50;1.80;;;;;;;;;;4964563;28;20049;-72
2023/04/19 11:21:00;;;;;;;2.47;1.58;;;;;;;;;;4968895;28;20054;-72
2023/04/19 11:23:26;;;;;;;6.85;1.13;;;;;;;;;;4967512;28;20050;-73
2023/04/19 11:25:52;;;;;;;5.63;1.70;;;;;;;;;;4962951;28;20060;-73
2023/04/19 11:28:20;;;;;;;2.70;1.20;;;;;;;;;;4966164;28;20061;-72
2023/04/19 11:30:47;;;;;;;3.55;1.42;;;14.00;99.90;;;;;;4985450;28;20104;-73
2023/04/19 11:33:12;;;;;;;9.73;1.48;;;14.00;99.90;;;;;;4966201;28;20042;-71
2023/04/19 11:35:38;;;;;;;2.95;1.30;;;;;;;;;;4968473;28;20034;-72
2023/04/19 11:38:04;;;;;;;2.45;1.73;;;13.90;99.90;;;;;;4980591;28;20412;-72
2023/04/19 11:40:31;;;;;;;6.00;1.50;;;14.00;99.90;;;;;;4969899;28;20050;-72
2023/04/19 11:42:59;;;;;;;1.92;1.48;;;14.00;99.90;;;;;;4984696;28;20134;-73
2023/04/19 11:45:29;;;;;;;3.78;1.42;;;14.00;99.90;;;;;;4983202;28;20081;-73
2023/04/19 11:47:55;;;;;;;5.05;1.40;;;14.00;99.90;;;;;;4981259;28;20039;-72
2023/04/19 11:50:32;;;;;;;4.00;1.92;;;13.90;99.90;;;;;;4960607;28;20050;-73
2023/04/19 11:52:58;;;;;;;2.03;1.38;;;;;;;;;;4985614;28;20575;-72
2023/04/19 11:55:24;;;;;;;3.70;1.70;;;;;;;;;;4982276;28;20050;-72
2023/04/19 11:57:50;;;;;;;2.28;1.48;;;;;;;;;;4971363;28;20038;-73
2023/04/19 12:00:16;;;;;;;1.85;1.45;;;;;;;;;;4968406;28;20046;-73
2023/04/19 12:02:43;;;;;;;1.58;1.10;;;13.80;99.90;;;;;;4974048;28;20053;-73
2023/04/19 12:05:14;;;;;;;3.97;1.30;;;13.80;99.90;;;;;;4954727;28;20396;-72
2023/04/19 12:07:58;;;;;;;1.70;1.25;;;14.00;99.90;;;;;;4975898;28;20064;-72
2023/04/19 12:10:24;;;;;;;4.40;1.40;;;;;;;;;;4954485;28;20061;-73
2023/04/19 12:12:50;;;;;;;2.95;1.48;;;;;;;;;;4977320;28;20042;-72
2023/04/19 12:15:16;;;;;;;2.08;1.30;;;;;;;;;;4978528;28;20378;-74
2023/04/19 12:17:58;;;;;;;3.60;1.90;;;13.80;99.90;;;;;;4965193;28;20078;-74
2023/04/19 12:20:33;;;;;;;6.13;1.73;;;14.00;99.90;;;;;;4975091;28;20148;-74
2023/04/19 12:22:59;;;;;;;2.13;1.77;;;;;;;;;;4963221;28;20050;-73
2023/04/19 12:25:33;;;;;;;2.90;1.83;;;13.90;99.90;;;;;;4964586;28;20193;-74
2023/04/19 12:28:03;;;;;;;8.35;2.28;;;14.00;99.90;;;;;;4968197;28;20046;-74
2023/04/19 12:30:29;;;;;;;3.70;2.38;;;;;;;;;;4966856;28;20054;-73
2023/04/19 12:32:54;;;;;;;4.97;2.00;;;14.00;99.90;;;;;;4963345;28;20049;-74
2023/04/19 12:35:24;;;;;;;6.18;2.15;;;14.00;99.90;;;;;;4981903;28;20039;-73
2023/04/19 12:37:55;;;;;;;5.75;2.50;;;14.00;99.90;;;;;;4961479;28;20495;-74
2023/04/19 12:40:22;;;;;;;2.78;2.05;;;13.80;99.90;;;;;;4967153;28;20038;-74
2023/04/19 12:42:48;;;;;;;3.15;2.63;;;13.90;99.90;;;;;;4978944;28;20113;-73
2023/04/19 12:45:14;;;;;;;7.95;2.22;;;;;;;;;;4966870;28;20052;-73
2023/04/19 12:47:40;;;;;;;3.28;2.33;;;13.70;99.90;;;;;;4961324;28;20050;-73
2023/04/19 12:50:07;;;;;;;5.53;2.45;;;14.10;99.90;;;;;;4954548;28;20503;-73
2023/04/19 12:52:33;;;;;;;4.38;2.83;;;;;;;;;;4956835;28;20043;-73
2023/04/19 12:54:59;;;;;;;4.88;2.35;;;;;;;;;;4961565;28;20092;-73
2023/04/19 12:57:25;;;;;;;2.85;2.10;;;;;;;;;;4958439;28;20054;-73
2023/04/19 12:59:51;;;;;;;5.95;2.50;;;13.80;99.90;;;;;;4962858;28;20496;-74
2023/04/19 13:02:17;;;;;;;6.45;2.72;;;;;;;;;;4960326;28;20049;-73
2023/04/19 13:04:43;;;;;;;5.25;2.78;;;;;;;;;;4957587;28;20221;-74
2023/04/19 13:07:08;;;;;;;4.32;2.25;;;13.80;99.90;;;;;;4961927;28;20057;-74
2023/04/19 13:09:34;;;;;;;5.32;2.40;;;;;;;;;;4977226;28;20401;-72
2023/04/19 13:12:00;;;;;;;7.43;2.38;;;;;;;;;;4957657;28;20042;-73
2023/04/19 13:14:26;;;;;;;5.00;2.20;;;13.90;99.90;;;;;;4954486;28;20051;-74
2023/04/19 13:16:53;;;;;;;4.57;2.30;;;;;;;;;;4969056;28;20529;-74
2023/04/19 13:19:19;;;;;;;3.75;2.53;;;;;;;;;;4954429;28;20421;-74
2023/04/19 13:21:45;;;;;;;4.50;2.60;;;;;;;;;;4974926;28;20058;-74
2023/04/19 13:24:11;;;;;;;3.70;2.67;;;;;;;;;;4979214;28;20700;-74
2023/04/19 13:26:37;;;;;;;3.85;2.28;;;;;;;;;;4976284;28;20104;-74
2023/04/19 13:29:03;;;;;;;2.88;1.98;;;14.10;99.90;;;;;;4987428;28;20050;-74
2023/04/19 13:31:29;;;;;;;5.40;2.47;;;;;;;;;;4984650;28;20034;-73
2023/04/19 13:33:55;;;;;;;4.00;2.53;;;;;;;;;;4959835;28;20038;-74
2023/04/19 13:36:21;;;;;;;4.25;2.28;;;;;;;;;;4970208;28;20046;-74
2023/04/19 13:38:47;;;;;;;3.17;1.95;;;14.00;99.90;;;;;;4947005;28;20148;-74
2023/04/19 13:41:13;;;;;;;5.50;2.30;;;;;;;;;;4961960;28;20760;-74
2023/04/19 13:43:39;;;;;;;4.63;2.67;;;;;;;;;;4963736;28;20058;-73
2023/04/19 13:46:05;;;;;;;2.85;2.40;;;13.80;99.90;;;;;;4964588;28;20081;-74
2023/04/19 13:48:31;;;;;;;3.60;2.65;;;;;;;;;;4962709;28;20047;-74
2023/04/19 13:50:58;;;;;;;6.78;2.30;;;13.90;99.90;;;;;;4961271;28;20039;-74
2023/04/19 13:53:25;;;;;;;2.60;2.10;;;14.10;99.90;;;;;;4964157;28;20051;-73
2023/04/19 13:55:51;;;;;;;5.32;2.13;;;;;;;;;;4967534;28;20038;-74
2023/04/19 13:58:18;;;;;;;5.85;2.60;;;13.80;99.90;;;;;;4967072;28;20042;-74
2023/04/19 14:00:44;;;;;;;3.72;2.40;;;;;;;;;;4962168;28;20100;-74
2023/04/19 14:03:10;;;;;;;3.70;2.88;;;13.80;99.90;;;;;;4966769;28;20500;-74